Time;durP1;ratioP1;P1;durP2;ratioP2;P2;SDS_P1;SDS_P2;PMS_P1;PMS_P2;Temp;Humidity;BMP_temperature;BMP_pressure;BME280_temperature;BME280_humidity;BME280_pressure;Samples;Min_cycle;Max_cycle;Signal;HPM_P1;HPM_P2
2022/09/27 00:02:16;;;;;;;5.35;0.52;;;11.50;99.90;;;;;;4923666;29;20060;-83
2022/09/27 00:04:41;;;;;;;2.30;0.40;;;11.50;99.90;;;;;;4923516;29;20086;-82
2022/09/27 00:07:09;;;;;;;5.00;0.68;;;11.50;99.90;;;;;;4923668;29;20546;-82
2022/09/27 00:09:35;;;;;;;6.53;0.45;;;11.50;99.90;;;;;;4923596;29;20091;-82
2022/09/27 00:12:00;;;;;;;12.57;1.85;;;11.60;99.90;;;;;;4906701;29;20452;-82
2022/09/27 00:14:26;;;;;;;8.40;1.10;;;11.60;99.90;;;;;;4906496;29;20055;-81
2022/09/27 00:16:51;;;;;;;4.55;1.30;;;11.60;99.90;;;;;;4906466;29;20046;-83
2022/09/27 00:19:20;;;;;;;5.82;0.50;;;11.50;99.90;;;;;;4906355;29;20550;-82
2022/09/27 00:21:46;;;;;;;4.15;0.88;;;11.40;99.90;;;;;;4923470;29;20032;-83
2022/09/27 00:24:14;;;;;;;7.28;0.80;;;11.40;99.90;;;;;;4906646;29;20059;-82
2022/09/27 00:26:40;;;;;;;5.43;0.60;;;11.40;99.90;;;;;;4923442;29;20061;-85
2022/09/27 00:29:06;;;;;;;5.60;0.80;;;11.40;99.90;;;;;;4923198;29;20365;-83
2022/09/27 00:31:32;;;;;;;8.35;2.05;;;11.50;99.90;;;;;;4906350;29;20123;-82
2022/09/27 00:34:00;;;;;;;6.32;0.80;;;11.50;99.90;;;;;;4906610;29;20051;-82
2022/09/27 00:36:27;;;;;;;3.80;0.50;;;11.50;99.90;;;;;;4906591;29;20056;-83
2022/09/27 00:38:53;;;;;;;4.13;0.60;;;11.50;99.90;;;;;;4906345;29;20127;-83
2022/09/27 00:41:37;;;;;;;5.63;0.50;;;11.50;99.90;;;;;;4906193;29;20079;-83
2022/09/27 00:44:25;;;;;;;4.63;0.50;;;11.50;99.90;;;;;;4923375;29;20048;-82
2022/09/27 00:46:55;;;;;;;5.88;0.50;;;11.50;99.90;;;;;;4906383;29;20056;-83
2022/09/27 00:49:27;;;;;;;8.05;0.60;;;11.60;99.90;;;;;;4906343;29;20055;-83
2022/09/27 00:52:06;;;;;;;3.60;0.55;;;11.60;99.90;;;;;;4906113;29;20177;-83
2022/09/27 00:54:35;;;;;;;4.57;0.60;;;11.60;99.90;;;;;;4906032;29;20056;-83
2022/09/27 00:57:02;;;;;;;5.35;1.10;;;11.70;99.90;;;;;;4906227;29;20134;-82
2022/09/27 00:59:44;;;;;;;5.15;0.93;;;11.70;99.90;;;;;;4910016;29;20060;-82
2022/09/27 01:23:24;;;;;;;3.95;0.57;;;11.40;99.90;;;;;;4920270;29;20039;-83
2022/09/27 01:26:13;;;;;;;10.95;1.13;;;11.30;99.90;;;;;;4918501;29;20059;-83
2022/09/27 02:11:54;;;;;;;4.03;0.70;;;11.00;99.90;;;;;;4915374;29;20148;-82
2022/09/27 03:18:02;;;;;;;7.40;0.68;;;10.80;99.90;;;;;;4914095;29;20063;-82
2022/09/27 03:20:28;;;;;;;5.32;0.40;;;10.70;99.90;;;;;;4897888;29;20189;-82
2022/09/27 03:22:55;;;;;;;5.20;0.52;;;10.60;99.90;;;;;;4897801;29;20397;-81
2022/09/27 03:25:21;;;;;;;13.88;2.05;;;10.60;99.90;;;;;;4897092;29;20044;-83
2022/09/27 03:27:47;;;;;;;5.80;0.75;;;10.60;99.90;;;;;;4897853;29;20044;-81
2022/09/27 03:30:13;;;;;;;6.43;0.70;;;10.20;99.90;;;;;;4898926;29;20052;-81
2022/09/27 03:32:43;;;;;;;7.90;0.60;;;10.20;99.90;;;;;;4898661;29;20112;-82
2022/09/27 03:35:09;;;;;;;15.10;2.65;;;10.20;99.90;;;;;;4897458;29;20136;-83
2022/09/27 03:37:34;;;;;;;8.90;1.30;;;10.20;99.90;;;;;;4897500;29;20127;-83
2022/09/27 03:40:00;;;;;;;13.38;1.77;;;10.20;99.90;;;;;;4898623;29;20044;-82
2022/09/27 03:42:29;;;;;;;10.13;1.08;;;10.20;99.90;;;;;;4897207;29;20048;-83
2022/09/27 03:44:54;;;;;;;8.68;0.70;;;10.20;99.90;;;;;;4897522;29;20052;-82
2022/09/27 03:47:21;;;;;;;9.35;1.52;;;10.20;99.90;;;;;;4897560;29;20049;-82
2022/09/27 03:49:46;;;;;;;7.45;1.52;;;10.20;99.90;;;;;;4897366;29;20086;-83
2022/09/27 03:52:12;;;;;;;5.13;0.70;;;10.30;99.90;;;;;;4897278;29;20468;-83
2022/09/27 03:54:38;;;;;;;7.40;0.80;;;10.40;99.90;;;;;;4898534;29;20059;-83
2022/09/27 03:57:04;;;;;;;4.93;0.93;;;10.50;99.90;;;;;;4897188;29;20091;-83
2022/09/27 03:59:30;;;;;;;6.60;0.85;;;10.50;99.90;;;;;;4897377;29;20049;-83
2022/09/27 04:01:55;;;;;;;7.70;1.15;;;10.60;99.90;;;;;;4897083;29;20106;-83
2022/09/27 04:04:21;;;;;;;11.13;1.10;;;10.60;99.90;;;;;;4897435;29;20111;-84
2022/09/27 04:06:46;;;;;;;6.70;0.75;;;10.60;99.90;;;;;;4897155;29;20377;-84
2022/09/27 04:09:12;;;;;;;9.27;0.65;;;10.60;99.90;;;;;;4897253;29;20048;-83
2022/09/27 04:11:38;;;;;;;4.57;0.60;;;10.50;99.90;;;;;;4897048;29;20105;-83
2022/09/27 04:14:04;;;;;;;6.13;0.82;;;10.50;99.90;;;;;;4897337;29;20126;-83
2022/09/27 04:16:31;;;;;;;7.20;0.95;;;10.40;99.90;;;;;;4898462;29;20154;-83
2022/09/27 04:18:57;;;;;;;6.97;1.00;;;10.50;99.90;;;;;;4906037;29;20056;-82
2022/09/27 04:21:23;;;;;;;7.80;1.40;;;10.40;99.90;;;;;;4916043;29;20048;-82
2022/09/27 04:23:49;;;;;;;10.88;1.67;;;10.30;99.90;;;;;;4915895;29;20045;-82
2022/09/27 04:26:15;;;;;;;7.38;1.23;;;10.30;99.90;;;;;;4915911;29;20059;-82
2022/09/27 04:28:40;;;;;;;12.18;1.38;;;10.30;99.90;;;;;;4915665;29;20052;-82
2022/09/27 04:31:06;;;;;;;8.55;0.90;;;10.30;99.90;;;;;;4915810;29;20075;-83
2022/09/27 04:33:31;;;;;;;6.93;0.82;;;10.20;99.90;;;;;;4917153;29;20052;-82
2022/09/27 04:38:54;;;;;;;6.13;0.50;;;10.20;99.90;;;;;;4918548;29;20059;-83
2022/09/27 04:41:22;;;;;;;4.68;0.73;;;10.20;99.90;;;;;;4919303;29;20052;-82
2022/09/27 04:43:48;;;;;;;8.05;0.95;;;10.10;99.90;;;;;;4920644;29;20044;-83
2022/09/27 04:46:14;;;;;;;8.70;0.70;;;10.10;99.90;;;;;;4920556;29;20052;-82
2022/09/27 04:48:40;;;;;;;5.75;0.63;;;10.10;99.90;;;;;;4919246;29;20048;-83
2022/09/27 04:51:06;;;;;;;7.47;0.50;;;10.10;99.90;;;;;;4919499;29;20124;-83
2022/09/27 04:53:31;;;;;;;3.05;0.63;;;10.10;99.90;;;;;;4918951;29;20048;-83
2022/09/27 04:55:57;;;;;;;6.05;0.63;;;10.10;99.90;;;;;;4920216;29;20048;-83
2022/09/27 04:58:24;;;;;;;4.93;0.60;;;10.10;99.90;;;;;;4920210;29;20055;-82
2022/09/27 05:00:54;;;;;;;5.47;1.13;;;10.00;99.90;;;;;;4919302;29;20388;-83
2022/09/27 05:03:21;;;;;;;4.57;0.65;;;10.10;99.90;;;;;;4918845;29;20048;-83
2022/09/27 05:05:46;;;;;;;4.57;0.30;;;10.20;99.90;;;;;;4919866;29;20122;-83
2022/09/27 05:08:12;;;;;;;3.63;0.60;;;10.30;99.90;;;;;;4919494;29;20488;-83
2022/09/27 05:10:38;;;;;;;3.60;0.80;;;10.30;99.90;;;;;;4919530;29;20440;-83
2022/09/27 05:13:03;;;;;;;5.70;0.90;;;10.40;99.90;;;;;;4919024;29;20437;-82
2022/09/27 05:15:29;;;;;;;7.20;1.27;;;10.40;99.90;;;;;;4918744;29;20420;-82
2022/09/27 05:17:55;;;;;;;6.60;0.95;;;10.40;99.90;;;;;;4918642;29;20473;-83
2022/09/27 05:20:21;;;;;;;6.90;0.73;;;10.40;99.90;;;;;;4903003;29;20055;-83
2022/09/27 05:22:47;;;;;;;3.85;0.60;;;10.30;99.90;;;;;;4902789;29;20040;-83
2022/09/27 05:25:12;;;;;;;5.68;1.10;;;10.20;99.90;;;;;;4902725;29;20052;-83
2022/09/27 05:27:38;;;;;;;7.22;0.93;;;10.30;99.90;;;;;;4902864;29;20044;-83
2022/09/27 05:30:06;;;;;;;7.80;0.80;;;10.30;99.90;;;;;;4902740;29;20044;-81
2022/09/27 05:32:33;;;;;;;4.07;1.23;;;10.30;99.90;;;;;;4902909;29;20484;-83
2022/09/27 05:34:59;;;;;;;2.67;0.35;;;10.30;99.90;;;;;;4902568;29;20052;-83
2022/09/27 05:55:49;;;;;;;6.75;0.70;;;10.50;99.90;;;;;;4919315;29;20125;-84
2022/09/27 05:58:15;;;;;;;6.78;0.68;;;10.60;99.90;;;;;;4902248;29;20064;-83
2022/09/27 06:04:21;;;;;;;6.97;0.70;;;10.70;99.90;;;;;;4919173;29;20047;-85
2022/09/27 06:06:47;;;;;;;6.07;0.60;;;10.70;99.90;;;;;;4902315;29;20440;-85
2022/09/27 06:09:15;;;;;;;4.95;0.63;;;10.70;99.90;;;;;;4901698;29;20052;-84
2022/09/27 06:11:42;;;;;;;6.43;0.50;;;10.60;99.90;;;;;;4901794;29;20056;-83
2022/09/27 06:14:08;;;;;;;11.15;0.75;;;10.60;99.90;;;;;;4901703;29;20118;-84
2022/09/27 06:16:34;;;;;;;4.72;0.55;;;10.50;99.90;;;;;;4901568;29;20134;-84
2022/09/27 06:19:00;;;;;;;5.75;0.70;;;10.40;99.90;;;;;;4918503;29;20083;-83
2022/09/27 06:21:27;;;;;;;5.40;0.85;;;10.50;99.90;;;;;;4918506;29;20083;-83
2022/09/27 06:23:54;;;;;;;5.88;0.70;;;10.50;99.90;;;;;;4901529;29;20432;-83
2022/09/27 06:26:23;;;;;;;5.18;0.50;;;10.50;99.90;;;;;;4901780;29;20047;-83
2022/09/27 06:28:50;;;;;;;3.83;0.47;;;10.40;99.90;;;;;;4901501;29;20040;-84
2022/09/27 06:31:15;;;;;;;3.05;0.30;;;10.40;99.90;;;;;;4901418;29;20062;-84
2022/09/27 06:33:41;;;;;;;4.43;0.50;;;10.40;99.90;;;;;;4901673;29;20048;-84
2022/09/27 06:36:07;;;;;;;3.70;0.32;;;10.40;99.90;;;;;;4901316;29;20051;-84
2022/09/27 06:38:37;;;;;;;3.47;0.50;;;10.30;99.90;;;;;;4901232;29;20044;-83
2022/09/27 06:41:05;;;;;;;5.65;0.70;;;10.40;99.90;;;;;;4901073;29;20052;-84
2022/09/27 06:43:32;;;;;;;4.78;0.65;;;10.50;99.90;;;;;;4901168;29;20575;-85
2022/09/27 06:46:04;;;;;;;3.63;0.45;;;10.50;99.90;;;;;;4901328;29;20046;-84
2022/09/27 06:52:15;;;;;;;3.95;0.57;;;10.50;99.90;;;;;;4899219;29;20449;-85
2022/09/27 06:54:40;;;;;;;8.50;0.88;;;10.50;99.90;;;;;;4887014;29;20048;-83
2022/09/27 06:57:06;;;;;;;5.70;0.80;;;10.50;99.90;;;;;;4899678;29;20418;-85
2022/09/27 07:02:16;;;;;;;7.47;0.93;;;10.60;99.90;;;;;;4900800;29;20501;-84
2022/09/27 07:04:41;;;;;;;4.82;0.70;;;10.60;99.90;;;;;;4900664;29;20056;-85
2022/09/27 07:07:08;;;;;;;6.45;0.82;;;10.60;99.90;;;;;;4917423;29;20040;-83
2022/09/27 07:09:33;;;;;;;8.63;0.70;;;10.70;99.90;;;;;;4917408;29;20044;-83
2022/09/27 07:11:59;;;;;;;2.72;0.40;;;10.80;99.90;;;;;;4900460;29;20063;-85
2022/09/27 07:14:25;;;;;;;3.63;0.65;;;10.90;99.90;;;;;;4900524;29;20048;-84
2022/09/27 07:16:51;;;;;;;4.50;0.60;;;10.90;99.90;;;;;;4900446;29;20044;-84
2022/09/27 07:19:17;;;;;;;5.38;0.65;;;10.90;99.90;;;;;;4908567;29;20416;-83
2022/09/27 07:21:45;;;;;;;6.13;0.43;;;10.90;99.90;;;;;;4917319;29;20060;-84
2022/09/27 07:24:11;;;;;;;3.65;0.40;;;10.90;99.90;;;;;;4916484;29;20485;-83
2022/09/27 07:26:36;;;;;;;2.22;0.35;;;10.90;99.90;;;;;;4916102;29;20055;-84
2022/09/27 07:29:02;;;;;;;3.53;0.50;;;11.00;99.90;;;;;;4917288;29;20084;-81
2022/09/27 07:31:28;;;;;;;4.15;0.30;;;10.90;99.90;;;;;;4916021;29;20095;-83
2022/09/27 07:33:54;;;;;;;3.78;0.35;;;11.00;99.90;;;;;;4916152;29;20096;-83
2022/09/27 07:36:20;;;;;;;1.70;0.30;;;11.00;99.90;;;;;;4916249;29;20127;-83
2022/09/27 07:38:46;;;;;;;7.70;0.50;;;11.10;99.90;;;;;;4916906;29;20440;-82
2022/09/27 07:41:13;;;;;;;4.78;0.70;;;11.20;99.90;;;;;;4916118;29;20048;-83
2022/09/27 07:43:40;;;;;;;3.97;0.57;;;11.30;99.90;;;;;;4915883;29;20048;-81
2022/09/27 07:46:06;;;;;;;10.50;1.02;;;11.30;99.90;;;;;;4915758;29;20396;-81
2022/09/27 07:48:32;;;;;;;5.22;0.55;;;11.30;99.90;;;;;;4915554;29;20091;-83
2022/09/27 07:50:58;;;;;;;1.38;0.40;;;11.30;99.90;;;;;;4916056;29;20087;-83
2022/09/27 07:53:24;;;;;;;2.83;0.32;;;11.30;99.90;;;;;;4915808;29;20118;-81
2022/09/27 07:55:53;;;;;;;2.97;0.40;;;11.40;99.90;;;;;;4915289;29;20560;-81
2022/09/27 07:58:20;;;;;;;2.75;0.60;;;11.40;99.90;;;;;;4915803;29;20088;-80
2022/09/27 08:00:46;;;;;;;6.45;0.90;;;11.50;99.90;;;;;;4915414;29;20127;-81
2022/09/27 08:03:14;;;;;;;5.60;1.15;;;11.60;99.90;;;;;;4915730;29;20131;-80
2022/09/27 08:05:41;;;;;;;4.90;0.93;;;11.60;99.90;;;;;;4915733;29;20056;-83
2022/09/27 08:08:07;;;;;;;5.80;0.98;;;11.70;99.90;;;;;;4915607;29;20080;-81
2022/09/27 08:10:33;;;;;;;7.95;1.80;;;11.60;99.90;;;;;;4915638;29;20082;-81
2022/09/27 08:13:06;;;;;;;4.18;0.30;;;11.50;99.90;;;;;;4918778;29;20052;-81
2022/09/27 08:15:37;;;;;;;2.80;0.60;;;11.50;99.90;;;;;;4919778;29;20107;-82
2022/09/27 08:18:06;;;;;;;3.35;0.52;;;11.40;99.90;;;;;;4919796;29;20040;-81
2022/09/27 08:20:32;;;;;;;3.70;0.30;;;11.40;99.90;;;;;;4903919;29;20131;-81
2022/09/27 08:22:58;;;;;;;2.67;0.20;;;11.40;99.90;;;;;;4903501;29;20470;-81
2022/09/27 08:25:23;;;;;;;4.15;0.43;;;11.60;99.90;;;;;;4903795;29;20040;-81
2022/09/27 08:28:00;;;;;;;2.22;0.47;;;11.50;99.90;;;;;;4903562;29;20074;-81
2022/09/27 08:30:27;;;;;;;3.22;0.30;;;11.50;99.90;;;;;;4903490;29;20088;-81
2022/09/27 08:32:57;;;;;;;2.70;0.25;;;11.50;99.90;;;;;;4903805;29;20063;-82
2022/09/27 08:35:23;;;;;;;4.28;0.38;;;11.40;99.90;;;;;;4903225;29;20530;-80
2022/09/27 08:37:58;;;;;;;2.78;0.47;;;11.40;99.90;;;;;;4903222;29;20048;-81
2022/09/27 08:40:49;;;;;;;6.72;1.00;;;11.40;99.90;;;;;;4903395;29;20087;-81
2022/09/27 08:43:37;;;;;;;5.97;0.65;;;11.30;99.90;;;;;;4903159;29;20059;-80
2022/09/27 08:46:36;;;;;;;3.80;0.52;;;11.40;99.90;;;;;;4903181;29;20489;-80
2022/09/27 08:49:12;;;;;;;5.25;0.45;;;11.50;99.90;;;;;;4903045;29;20492;-80
2022/09/27 08:51:40;;;;;;;2.13;0.30;;;11.50;99.90;;;;;;4903420;29;20510;-81
2022/09/27 08:54:17;;;;;;;3.15;0.50;;;11.50;99.90;;;;;;4903007;29;20048;-82
2022/09/27 08:56:44;;;;;;;4.28;0.40;;;11.50;99.90;;;;;;4902896;29;20076;-82
2022/09/27 08:59:19;;;;;;;8.15;0.60;;;11.50;99.90;;;;;;4902753;29;20058;-82
2022/09/27 09:01:50;;;;;;;5.35;0.50;;;11.50;99.90;;;;;;4903100;29;20112;-80
2022/09/27 09:04:28;;;;;;;4.78;0.65;;;11.40;99.90;;;;;;4920042;29;20040;-81
2022/09/27 09:07:19;;;;;;;11.15;2.55;;;11.40;99.90;;;;;;4902776;29;20055;-81
2022/09/27 09:10:11;;;;;;;4.95;0.50;;;11.30;99.90;;;;;;4902676;29;20054;-81
2022/09/27 09:13:19;;;;;;;2.70;0.57;;;11.30;99.90;;;;;;4919684;29;20407;-81
2022/09/27 09:16:00;;;;;;;5.18;0.45;;;11.20;99.90;;;;;;4902979;29;20052;-81
2022/09/27 15:12:30;;;;;;;3.78;1.35;;;12.00;99.90;;;;;;5279424;23;20456;-86
2022/09/27 15:14:57;;;;;;;1.88;0.43;;;12.00;99.90;;;;;;4919725;29;20058;-82
2022/09/27 15:17:24;;;;;;;2.60;0.25;;;12.00;99.90;;;;;;4919449;29;20134;-82
2022/09/27 15:20:26;;;;;;;2.83;0.30;;;12.00;99.90;;;;;;4919203;29;20047;-82
2022/09/27 15:22:54;;;;;;;2.45;0.38;;;12.00;99.90;;;;;;4919185;29;20064;-81
2022/09/27 15:25:33;;;;;;;3.97;0.40;;;11.90;99.90;;;;;;4919770;29;20070;-82
2022/09/27 15:28:03;;;;;;;3.75;0.70;;;12.00;99.90;;;;;;4936434;29;20062;-81
2022/09/27 15:30:41;;;;;;;2.58;0.43;;;11.90;99.90;;;;;;4918659;29;20059;-83
2022/09/27 15:33:21;;;;;;;2.35;0.40;;;12.00;99.90;;;;;;4936539;29;20062;-84
2022/09/27 15:35:55;;;;;;;1.25;0.40;;;11.90;99.90;;;;;;4936474;29;20044;-83
2022/09/27 15:38:27;;;;;;;5.25;0.80;;;11.90;99.90;;;;;;4936280;29;20054;-84
2022/09/27 15:40:58;;;;;;;2.05;0.60;;;11.80;99.90;;;;;;4919253;29;20052;-84
2022/09/27 15:43:29;;;;;;;1.98;0.30;;;11.80;99.90;;;;;;4919290;29;20062;-84
2022/09/27 15:45:59;;;;;;;2.92;1.08;;;11.80;99.90;;;;;;4936323;29;20040;-89
2022/09/27 15:48:26;;;;;;;2.70;0.60;;;11.70;99.90;;;;;;4919244;29;20126;-86
2022/09/27 15:50:51;;;;;;;2.95;0.70;;;11.70;99.90;;;;;;4919009;29;20500;-86
2022/09/27 15:53:35;;;;;;;1.83;0.70;;;11.60;99.90;;;;;;4919161;29;20050;-83
2022/09/27 15:56:29;;;;;;;1.27;0.43;;;11.60;99.90;;;;;;4919363;29;20058;-86
2022/09/27 15:58:54;;;;;;;2.22;0.68;;;11.60;99.90;;;;;;4919260;29;20588;-86
2022/09/27 16:01:21;;;;;;;2.00;0.43;;;11.60;99.90;;;;;;4919341;29;20048;-86
2022/09/27 16:03:46;;;;;;;2.00;0.30;;;11.60;99.90;;;;;;4919060;29;20055;-87
2022/09/27 16:06:13;;;;;;;1.63;0.30;;;11.60;99.90;;;;;;4919188;29;20051;-86
2022/09/27 16:08:39;;;;;;;1.88;0.40;;;11.50;99.90;;;;;;4903166;29;20080;-87
2022/09/27 16:11:05;;;;;;;3.17;0.30;;;11.50;99.90;;;;;;4918797;29;20056;-85
2022/09/27 16:13:31;;;;;;;1.35;0.20;;;11.50;99.90;;;;;;4918850;29;20079;-86
2022/09/27 16:15:57;;;;;;;2.28;0.20;;;11.50;99.90;;;;;;4918880;29;20051;-85
2022/09/27 16:18:22;;;;;;;1.95;0.25;;;11.40;99.90;;;;;;4918954;29;20102;-86
2022/09/27 16:20:48;;;;;;;2.22;0.22;;;11.30;99.90;;;;;;4917889;29;20483;-86
2022/09/27 16:23:14;;;;;;;0.45;0.10;;;11.10;99.90;;;;;;4918902;29;20052;-84
2022/09/27 16:25:39;;;;;;;1.30;0.30;;;11.00;99.90;;;;;;4919220;29;20044;-84
2022/09/27 16:28:05;;;;;;;2.95;0.30;;;10.90;99.90;;;;;;4918851;29;20422;-83
2022/09/27 16:30:32;;;;;;;3.20;0.32;;;10.70;99.90;;;;;;4935681;29;20109;-83
2022/09/27 16:33:00;;;;;;;0.50;0.10;;;10.70;99.90;;;;;;4919137;29;20043;-83
2022/09/27 16:35:27;;;;;;;4.72;1.00;;;10.50;99.90;;;;;;4923043;29;20070;-83
2022/09/27 16:37:53;;;;;;;4.82;0.70;;;10.50;99.90;;;;;;4922659;29;20130;-83
2022/09/27 16:40:18;;;;;;;3.80;0.30;;;10.50;99.90;;;;;;4921807;29;20131;-83
2022/09/27 16:42:47;;;;;;;2.80;0.55;;;10.40;99.90;;;;;;4922339;29;20039;-83
2022/09/27 16:45:15;;;;;;;4.32;0.40;;;10.40;99.90;;;;;;4939378;29;20086;-83
2022/09/27 16:47:42;;;;;;;1.80;0.20;;;10.40;99.90;;;;;;4922453;29;20047;-83
2022/09/27 16:52:54;;;;;;;3.13;0.30;;;10.20;99.90;;;;;;4922428;29;20062;-83
2022/09/27 16:55:20;;;;;;;2.58;0.10;;;10.20;99.90;;;;;;4922061;29;20043;-83
2022/09/27 16:57:46;;;;;;;2.38;0.13;;;10.20;99.90;;;;;;4922124;29;20040;-83
2022/09/27 17:00:12;;;;;;;0.32;0.10;;;10.10;99.90;;;;;;4922075;29;20063;-84
2022/09/27 17:02:45;;;;;;;0.65;0.10;;;10.10;99.90;;;;;;4922372;29;20194;-82
2022/09/27 17:05:12;;;;;;;;;;;10.10;99.90;;;;;;4922774;29;20063;-84
2022/09/27 17:07:37;;;;;;;2.97;0.10;;;10.00;99.90;;;;;;4921902;29;19988;-83
2022/09/27 17:10:09;;;;;;;4.32;0.20;;;9.90;99.90;;;;;;4921945;29;20463;-82
2022/09/27 17:12:35;;;;;;;1.88;0.15;;;9.90;99.90;;;;;;4932033;29;20063;-82
2022/09/27 17:15:00;;;;;;;2.88;0.60;;;9.90;99.90;;;;;;4937922;29;20044;-84
2022/09/27 17:17:29;;;;;;;4.22;0.98;;;9.90;99.90;;;;;;4937855;29;20506;-84
2022/09/27 17:19:54;;;;;;;10.68;3.10;;;9.80;99.90;;;;;;4938936;29;20179;-83
2022/09/27 17:22:23;;;;;;;11.20;4.28;;;9.80;99.90;;;;;;4938026;29;20142;-84
2022/09/27 17:24:50;;;;;;;6.15;2.50;;;9.70;99.90;;;;;;4938022;29;20056;-84
2022/09/27 17:27:16;;;;;;;4.10;1.15;;;9.70;99.90;;;;;;4937835;29;20391;-84
2022/09/27 17:29:41;;;;;;;8.00;3.20;;;9.70;99.90;;;;;;4937503;29;20055;-84
2022/09/27 17:32:12;;;;;;;6.28;1.65;;;9.60;99.90;;;;;;4937567;29;20142;-84
2022/09/27 17:34:42;;;;;;;8.68;3.30;;;9.60;99.90;;;;;;4937735;29;20075;-85
2022/09/27 17:37:09;;;;;;;9.85;2.60;;;9.50;99.90;;;;;;4938601;29;20067;-84
2022/09/27 17:39:35;;;;;;;9.48;2.22;;;9.50;99.90;;;;;;4938585;29;20051;-84
2022/09/27 17:42:01;;;;;;;14.90;5.50;;;9.50;99.90;;;;;;4937088;29;20106;-84
2022/09/27 17:44:30;;;;;;;11.55;3.35;;;9.50;99.90;;;;;;4938000;29;20050;-83
2022/09/27 17:52:29;;;;;;;8.80;2.92;;;9.40;99.90;;;;;;4938821;29;20051;-85
2022/09/27 17:54:57;;;;;;;6.38;1.17;;;9.40;99.90;;;;;;4936934;29;20455;-85
2022/09/27 17:57:23;;;;;;;2.40;0.65;;;9.40;99.90;;;;;;4937215;29;20070;-85
2022/09/27 17:59:49;;;;;;;6.07;1.58;;;9.30;99.90;;;;;;4936958;29;20404;-85
2022/09/27 18:02:15;;;;;;;8.45;1.95;;;9.30;99.90;;;;;;4937254;29;20119;-85
2022/09/27 18:04:41;;;;;;;3.30;1.20;;;9.30;99.90;;;;;;4936971;29;20051;-86
2022/09/27 18:07:07;;;;;;;4.57;1.48;;;9.30;99.90;;;;;;4936760;29;20052;-86
2022/09/27 18:09:33;;;;;;;6.07;1.10;;;9.30;99.90;;;;;;4936841;29;20091;-85
2022/09/27 18:11:59;;;;;;;2.22;0.28;;;9.30;99.90;;;;;;4936484;29;20090;-85
2022/09/27 18:14:28;;;;;;;4.38;0.57;;;9.20;99.90;;;;;;4936668;29;20048;-85
2022/09/27 18:16:56;;;;;;;2.35;0.30;;;9.20;99.90;;;;;;4936744;29;20047;-84
2022/09/27 18:19:22;;;;;;;2.92;0.45;;;9.20;99.90;;;;;;4936771;29;20052;-85
2022/09/27 18:21:49;;;;;;;4.07;0.50;;;9.10;99.90;;;;;;4936424;29;20052;-86
2022/09/27 18:24:15;;;;;;;1.58;0.30;;;9.20;99.90;;;;;;4936481;29;20058;-85
2022/09/27 18:26:41;;;;;;;3.97;0.65;;;9.20;99.90;;;;;;4937681;29;20131;-85
2022/09/27 18:29:12;;;;;;;4.00;0.40;;;9.20;99.90;;;;;;4936922;29;20087;-85
2022/09/27 18:31:42;;;;;;;3.20;0.30;;;9.10;99.90;;;;;;4936385;29;20087;-85
2022/09/27 18:34:10;;;;;;;1.00;0.20;;;9.10;99.90;;;;;;4936573;29;20056;-85
2022/09/27 18:36:41;;;;;;;4.03;0.50;;;9.10;99.90;;;;;;4936172;29;20062;-86
2022/09/27 18:39:17;;;;;;;0.98;0.30;;;9.10;99.90;;;;;;4936467;29;20060;-86
2022/09/27 18:41:43;;;;;;;1.02;0.22;;;9.10;99.90;;;;;;4936210;29;20091;-87
2022/09/27 18:44:12;;;;;;;2.70;0.60;;;9.10;99.90;;;;;;4936406;29;20051;-85
2022/09/27 18:46:38;;;;;;;7.07;0.88;;;9.10;99.90;;;;;;4936248;29;20044;-85
2022/09/27 18:49:15;;;;;;;8.38;2.60;;;9.10;99.90;;;;;;4936017;29;20048;-84
2022/09/27 18:51:45;;;;;;;6.03;2.35;;;9.10;99.90;;;;;;4937392;29;20103;-84
2022/09/27 18:54:19;;;;;;;4.10;1.50;;;9.10;99.90;;;;;;4936051;29;20395;-85
2022/09/27 18:56:47;;;;;;;2.67;1.00;;;9.10;99.90;;;;;;4935486;29;20056;-85
2022/09/27 18:59:13;;;;;;;3.30;0.75;;;9.10;99.90;;;;;;4935996;29;20178;-85
2022/09/27 19:01:43;;;;;;;4.47;1.13;;;9.10;99.90;;;;;;4935989;29;20135;-86
2022/09/27 19:04:10;;;;;;;3.72;1.15;;;9.10;99.90;;;;;;4935774;29;20138;-86
2022/09/27 19:06:37;;;;;;;1.45;0.50;;;9.10;99.90;;;;;;4936036;29;20044;-87
2022/09/27 19:09:04;;;;;;;2.38;0.73;;;9.00;99.90;;;;;;4935712;29;20055;-86
2022/09/27 19:11:30;;;;;;;6.75;0.80;;;9.00;99.90;;;;;;4935349;29;20139;-86
2022/09/27 19:13:57;;;;;;;3.63;0.50;;;9.00;99.90;;;;;;4936943;29;20075;-85
2022/09/27 19:16:27;;;;;;;3.40;0.77;;;9.00;99.90;;;;;;4919724;29;20047;-86
2022/09/27 19:18:53;;;;;;;1.45;0.55;;;9.00;99.90;;;;;;4920082;29;20126;-85
2022/09/27 19:21:21;;;;;;;2.53;0.63;;;9.00;99.90;;;;;;4936858;29;20098;-85
2022/09/27 19:23:50;;;;;;;5.10;1.40;;;9.00;99.90;;;;;;4936796;29;20071;-86
2022/09/27 19:26:19;;;;;;;5.88;1.10;;;9.00;99.90;;;;;;4919929;29;20059;-86
2022/09/27 19:28:46;;;;;;;2.90;0.93;;;9.00;99.90;;;;;;4919378;29;20071;-86
2022/09/27 19:31:17;;;;;;;7.50;2.33;;;9.00;99.90;;;;;;4919690;29;20069;-86
2022/09/27 19:33:43;;;;;;;4.72;1.30;;;9.00;99.90;;;;;;4919594;29;20086;-86
2022/09/27 19:36:11;;;;;;;6.03;1.20;;;8.90;99.90;;;;;;4919783;29;20091;-85
2022/09/27 19:38:37;;;;;;;5.57;1.35;;;8.90;99.90;;;;;;4919500;29;20036;-87
2022/09/27 19:41:05;;;;;;;5.63;2.25;;;8.90;99.90;;;;;;4919916;29;20039;-88
2022/09/27 19:43:31;;;;;;;4.60;1.70;;;8.90;99.90;;;;;;4936562;29;20044;-86
2022/09/27 19:46:09;;;;;;;5.72;2.15;;;8.90;99.90;;;;;;4919423;29;20046;-86
2022/09/27 19:48:38;;;;;;;3.13;1.30;;;8.90;99.90;;;;;;4919751;29;20135;-86
2022/09/27 19:51:05;;;;;;;5.68;2.22;;;8.80;99.90;;;;;;4936294;29;20091;-86
2022/09/27 19:53:33;;;;;;;16.00;5.93;;;8.80;99.90;;;;;;4919440;29;20091;-86
2022/09/27 19:56:00;;;;;;;8.38;2.65;;;8.80;99.90;;;;;;4919235;29;20059;-87
2022/09/27 19:58:27;;;;;;;4.78;1.02;;;8.80;99.90;;;;;;4919218;29;20058;-85
2022/09/27 20:01:00;;;;;;;6.47;1.80;;;8.80;99.90;;;;;;4919786;29;20121;-88
2022/09/27 20:03:26;;;;;;;6.68;1.20;;;8.70;99.90;;;;;;4919432;29;20047;-88
2022/09/27 20:05:56;;;;;;;4.28;1.10;;;8.70;99.90;;;;;;4919054;29;20070;-85
2022/09/27 20:08:22;;;;;;;3.45;1.10;;;8.80;99.90;;;;;;4921381;29;20099;-87
2022/09/27 20:11:03;;;;;;;5.68;1.15;;;8.80;99.90;;;;;;4922902;29;20055;-86
2022/09/27 20:13:30;;;;;;;4.18;1.38;;;8.70;99.90;;;;;;4939870;29;20449;-87
2022/09/27 20:16:13;;;;;;;3.10;0.88;;;8.70;99.90;;;;;;4923252;29;20058;-86
2022/09/27 20:18:43;;;;;;;3.95;0.90;;;8.70;99.90;;;;;;4940324;29;20048;-85
2022/09/27 20:21:10;;;;;;;4.90;1.38;;;8.70;99.90;;;;;;4923038;29;20138;-88
2022/09/27 20:23:36;;;;;;;6.78;1.60;;;8.70;99.90;;;;;;4923107;29;20047;-88
2022/09/27 20:26:03;;;;;;;5.32;1.33;;;8.70;99.90;;;;;;4923110;29;20138;-86
2022/09/27 20:28:29;;;;;;;3.40;1.67;;;8.70;99.90;;;;;;4939787;29;20495;-85
2022/09/27 20:31:00;;;;;;;7.82;2.08;;;8.70;99.90;;;;;;4922528;29;20086;-86
2022/09/27 20:33:41;;;;;;;5.70;2.00;;;8.70;99.90;;;;;;4922622;29;20079;-86
2022/09/27 20:36:26;;;;;;;5.07;1.95;;;8.70;99.90;;;;;;4922931;29;20043;-86
2022/09/27 20:39:01;;;;;;;4.90;1.85;;;8.60;99.90;;;;;;4939760;29;20403;-86
2022/09/27 20:41:28;;;;;;;3.80;2.33;;;8.60;99.90;;;;;;4922493;29;20450;-87
2022/09/27 20:43:59;;;;;;;4.00;1.98;;;8.60;99.90;;;;;;4922784;29;20106;-87
2022/09/27 20:46:25;;;;;;;5.05;1.60;;;8.60;99.90;;;;;;4922816;29;20048;-85
2022/09/27 20:48:56;;;;;;;6.63;2.00;;;8.60;99.90;;;;;;4922433;29;20154;-86
2022/09/27 20:51:22;;;;;;;3.70;1.90;;;8.60;99.90;;;;;;4922710;29;20066;-87
2022/09/27 20:53:50;;;;;;;4.10;1.60;;;8.60;99.90;;;;;;4922522;29;20078;-86
2022/09/27 20:56:30;;;;;;;4.40;1.75;;;8.50;99.90;;;;;;4922249;29;20460;-86
2022/09/27 20:58:57;;;;;;;4.65;1.55;;;8.60;99.90;;;;;;4922100;29;20443;-86
2022/09/27 21:01:24;;;;;;;3.28;1.50;;;8.60;99.90;;;;;;4922308;29;20519;-87
2022/09/27 21:03:55;;;;;;;4.38;1.90;;;8.50;99.90;;;;;;4922544;29;20373;-86
2022/09/27 21:06:25;;;;;;;3.25;1.40;;;8.60;99.90;;;;;;4922388;29;20044;-88
2022/09/27 21:08:52;;;;;;;3.97;1.52;;;8.60;99.90;;;;;;4922100;29;20050;-89
2022/09/27 21:11:21;;;;;;;4.22;1.48;;;8.50;99.90;;;;;;4922048;29;20047;-90
2022/09/27 21:13:48;;;;;;;3.47;1.73;;;8.50;99.90;;;;;;4937578;29;20060;-88
2022/09/27 21:16:19;;;;;;;6.13;1.70;;;8.50;99.90;;;;;;4937906;29;20060;-88
2022/09/27 21:18:51;;;;;;;5.25;1.85;;;8.50;99.90;;;;;;4937324;29;20475;-88
2022/09/27 21:21:17;;;;;;;3.30;1.35;;;8.50;99.90;;;;;;4937575;29;20488;-88
2022/09/27 21:23:44;;;;;;;6.07;1.45;;;8.50;99.90;;;;;;4937958;29;20051;-87
2022/09/27 21:26:14;;;;;;;3.22;1.08;;;8.50;99.90;;;;;;4938138;29;20052;-91
2022/09/27 21:28:42;;;;;;;2.45;1.20;;;8.50;99.90;;;;;;4938487;29;20055;-88
2022/09/27 21:31:10;;;;;;;4.85;1.30;;;8.50;99.90;;;;;;4938552;29;20043;-92
2022/09/27 21:33:36;;;;;;;2.05;1.13;;;8.60;99.90;;;;;;4938226;29;20051;-89
2022/09/27 21:36:03;;;;;;;2.30;1.20;;;8.50;99.90;;;;;;4937487;29;20404;-88
2022/09/27 21:38:30;;;;;;;2.97;1.30;;;8.50;99.90;;;;;;4938799;29;20044;-88
2022/09/27 21:40:55;;;;;;;3.63;2.00;;;8.50;99.90;;;;;;4937490;29;20127;-90